createdAt,value
2022-11-17T00:02:28.916Z,11.44
2022-11-17T00:06:30.445Z,11.44
2022-11-17T00:10:31.951Z,11.44
2022-11-17T00:14:36.785Z,11.44
2022-11-17T00:18:57.001Z,11.44
2022-11-17T00:22:58.518Z,11.42
2022-11-17T00:27:02.864Z,11.41
2022-11-17T00:31:23.053Z,11.39
2022-11-17T00:35:24.828Z,11.42
2022-11-17T00:39:26.405Z,11.44
2022-11-17T00:43:27.887Z,11.44
2022-11-17T00:47:29.401Z,11.44
2022-11-17T00:51:31.010Z,11.42
2022-11-17T00:55:32.602Z,11.41
2022-11-17T00:59:34.110Z,11.39
2022-11-17T01:03:37.157Z,11.39
2022-11-17T01:07:44.153Z,11.39
2022-11-17T01:11:46.393Z,11.41
2022-11-17T01:15:47.914Z,11.42
2022-11-17T01:19:49.532Z,11.44
2022-11-17T01:23:53.588Z,11.42
2022-11-17T01:27:55.087Z,11.36
2022-11-17T01:31:56.641Z,11.33
2022-11-17T01:36:02.984Z,11.33
2022-11-17T01:40:05.114Z,11.33
2022-11-17T01:44:37.557Z,11.31
2022-11-17T01:48:39.450Z,11.33
2022-11-17T01:52:41.460Z,11.33
2022-11-17T01:56:45.945Z,11.35
2022-11-17T02:00:47.681Z,11.35
2022-11-17T02:04:58.313Z,11.35
2022-11-17T02:09:02.659Z,11.33
2022-11-17T02:13:05.368Z,11.33
2022-11-17T02:17:13.276Z,11.33
2022-11-17T02:21:28.796Z,11.36
2022-11-17T02:25:45.756Z,11.41
2022-11-17T02:30:01.575Z,11.42
2022-11-17T02:34:11.741Z,11.41
2022-11-17T02:38:29.752Z,11.41
2022-11-17T02:42:56.862Z,11.44
2022-11-17T02:47:04.738Z,11.46
2022-11-17T02:51:11.982Z,11.46
2022-11-17T02:55:13.837Z,11.48
2022-11-17T02:59:18.087Z,11.48
2022-11-17T03:03:29.934Z,11.48
2022-11-17T03:07:45.305Z,11.49
2022-11-17T03:12:16.524Z,11.51
2022-11-17T03:16:50.699Z,11.53
2022-11-17T03:21:10.311Z,11.53
2022-11-17T03:25:16.654Z,11.51
2022-11-17T03:29:22.043Z,11.49
2022-11-17T03:33:25.562Z,11.46
2022-11-17T03:37:29.547Z,11.42
2022-11-17T03:41:36.347Z,11.44
2022-11-17T03:45:44.236Z,11.41
2022-11-17T03:50:05.752Z,11.39
2022-11-17T03:54:08.612Z,11.36
2022-11-17T03:58:15.675Z,11.33
2022-11-17T04:02:18.902Z,11.30
2022-11-17T04:06:20.497Z,11.28
2022-11-17T04:10:25.796Z,11.28
2022-11-17T04:14:45.727Z,11.28
2022-11-17T04:18:47.396Z,11.27
2022-11-17T04:23:07.169Z,11.26
2022-11-17T04:27:27.723Z,11.26
2022-11-17T04:31:30.971Z,11.23
2022-11-17T04:35:32.445Z,11.19
2022-11-17T04:39:37.561Z,11.19
2022-11-17T04:43:39.147Z,11.17
2022-11-17T04:47:40.665Z,11.16
2022-11-17T04:51:42.770Z,11.11
2022-11-17T04:55:44.280Z,11.08
2022-11-17T04:59:45.780Z,11.06
2022-11-17T05:03:48.645Z,11.08
2022-11-17T05:07:50.167Z,11.05
2022-11-17T05:12:10.128Z,11.05
2022-11-17T05:16:29.892Z,11.06
2022-11-17T05:20:32.750Z,11.06
2022-11-17T05:24:34.258Z,11.06
2022-11-17T05:28:35.817Z,11.05
2022-11-17T05:32:37.384Z,11.03
2022-11-17T05:36:39.729Z,11.02
2022-11-17T05:40:41.231Z,11.05
2022-11-17T05:44:42.789Z,11.06
2022-11-17T05:48:45.330Z,11.08
2022-11-17T05:52:46.979Z,11.05
2022-11-17T05:56:57.209Z,11.05
2022-11-17T06:00:59.549Z,11.05
2022-11-17T06:05:02.593Z,11.05
2022-11-17T06:09:04.465Z,11.01
2022-11-17T06:13:06.021Z,11.03
2022-11-17T06:17:20.593Z,11.05
2022-11-17T06:21:23.872Z,11.05
2022-11-17T06:25:25.587Z,11.05
2022-11-17T06:29:28.785Z,11.05
2022-11-17T06:33:31.698Z,11.06
2022-11-17T06:37:33.275Z,11.09
2022-11-17T06:41:36.169Z,11.11
2022-11-17T06:45:39.604Z,11.12
2022-11-17T06:49:41.145Z,11.12
2022-11-17T06:53:42.692Z,11.13
2022-11-17T06:57:48.935Z,11.19
2022-11-17T07:01:53.739Z,11.21
2022-11-17T07:05:59.081Z,11.26
2022-11-17T07:10:00.735Z,11.28
2022-11-17T07:14:03.162Z,11.31
2022-11-17T07:18:04.863Z,11.36
2022-11-17T07:22:06.601Z,11.41
2022-11-17T07:26:08.993Z,11.46
2022-11-17T07:30:10.996Z,11.53
2022-11-17T07:34:12.565Z,11.60
2022-11-17T07:38:14.635Z,11.66
2022-11-17T07:42:16.435Z,11.70
2022-11-17T07:46:27.292Z,11.77
2022-11-17T07:50:29.726Z,11.78
2022-11-17T07:54:31.315Z,11.79
2022-11-17T07:58:33.637Z,11.82
2022-11-17T08:02:35.621Z,11.96
2022-11-17T08:06:37.358Z,12.11
2022-11-17T08:10:39.467Z,12.18
2022-11-17T08:14:40.992Z,12.31
2022-11-17T08:18:45.983Z,12.44
2022-11-17T08:22:51.617Z,12.44
2022-11-17T08:26:53.737Z,12.43
2022-11-17T08:30:55.860Z,12.41
2022-11-17T08:34:57.881Z,12.38
2022-11-17T08:38:59.554Z,12.36
2022-11-17T08:43:01.768Z,12.34
2022-11-17T08:47:03.420Z,12.31
2022-11-17T08:51:06.668Z,12.34
2022-11-17T08:55:08.681Z,12.37
2022-11-17T08:59:13.113Z,12.44
2022-11-17T09:03:15.106Z,12.48
2022-11-17T09:07:16.797Z,12.52
2022-11-17T09:11:18.643Z,12.58
2022-11-17T09:15:20.247Z,12.77
2022-11-17T09:19:22.206Z,12.96
2022-11-17T09:23:23.805Z,13.17
2022-11-17T09:27:25.349Z,13.31
2022-11-17T09:31:27.018Z,13.35
2022-11-17T09:35:28.726Z,13.28
2022-11-17T09:39:30.433Z,13.21
2022-11-17T09:43:35.723Z,13.07
2022-11-17T09:48:02.423Z,12.88
2022-11-17T09:52:19.764Z,12.80
2022-11-17T09:56:22.043Z,12.80
2022-11-17T10:00:23.944Z,12.76
2022-11-17T10:04:28.747Z,12.70
2022-11-17T10:08:40.334Z,12.61
2022-11-17T10:12:47.516Z,12.59
2022-11-17T10:16:57.777Z,12.52
2022-11-17T10:20:59.372Z,12.48
2022-11-17T10:25:01.981Z,12.44
2022-11-17T10:29:11.215Z,12.41
2022-11-17T10:33:13.122Z,12.38
2022-11-17T10:37:15.299Z,12.40
2022-11-17T10:41:21.075Z,12.46
2022-11-17T10:45:22.858Z,12.49
2022-11-17T10:49:30.794Z,12.48
2022-11-17T10:53:46.027Z,12.63
2022-11-17T10:57:53.136Z,12.95
2022-11-17T11:01:55.208Z,13.10
2022-11-17T11:05:59.078Z,13.25
2022-11-17T11:10:12.774Z,13.41
2022-11-17T11:14:36.641Z,13.57
2022-11-17T11:18:39.042Z,13.65
2022-11-17T11:22:40.688Z,13.54
2022-11-17T11:27:13.196Z,13.59
2022-11-17T11:31:28.923Z,13.63
2022-11-17T11:35:36.736Z,13.71
2022-11-17T11:39:38.200Z,13.71
2022-11-17T11:44:04.660Z,13.79
2022-11-17T11:48:16.076Z,13.79
2022-11-17T11:52:22.698Z,13.84
2022-11-17T11:56:34.624Z,13.98
2022-11-17T12:00:37.402Z,14.17
2022-11-17T12:04:57.316Z,14.36
2022-11-17T12:09:06.244Z,14.54
2022-11-17T12:13:14.659Z,14.54
2022-11-17T12:17:26.113Z,14.61
2022-11-17T12:21:29.004Z,14.80
2022-11-17T12:25:34.383Z,14.80
2022-11-17T12:29:46.252Z,14.71
2022-11-17T12:33:53.934Z,14.69
2022-11-17T12:38:14.147Z,14.67
2022-11-17T12:42:15.717Z,14.83
2022-11-17T12:46:26.304Z,15.01
2022-11-17T12:51:06.433Z,15.03
2022-11-17T12:55:24.325Z,14.98
2022-11-17T12:59:42.395Z,14.85
2022-11-17T13:03:49.319Z,14.72
2022-11-17T13:08:09.431Z,14.66
2022-11-17T13:12:11.307Z,14.53
2022-11-17T13:16:19.485Z,14.46
2022-11-17T13:20:29.922Z,14.42
2022-11-17T13:24:36.444Z,14.35
2022-11-17T13:28:38.302Z,14.29
2022-11-17T13:32:41.659Z,14.21
2022-11-17T13:36:53.787Z,14.09
2022-11-17T13:40:55.705Z,13.54
2022-11-17T13:44:59.524Z,13.19
2022-11-17T13:49:01.141Z,12.99
2022-11-17T13:53:06.655Z,12.88
2022-11-17T13:57:08.642Z,12.81
2022-11-17T14:01:13.787Z,12.85
2022-11-17T14:05:23.126Z,12.85
2022-11-17T14:09:30.775Z,12.81
2022-11-17T14:13:41.371Z,12.74
2022-11-17T14:17:50.294Z,12.48
2022-11-17T14:22:26.166Z,12.34
2022-11-17T14:26:32.727Z,12.23
2022-11-17T14:30:34.464Z,12.21
2022-11-17T14:34:36.091Z,12.26
2022-11-17T14:38:37.700Z,12.30
2022-11-17T14:42:41.406Z,12.25
2022-11-17T14:46:43.154Z,12.29
2022-11-17T14:50:44.708Z,12.36
2022-11-17T14:54:46.298Z,12.40
2022-11-17T14:58:52.349Z,12.43
2022-11-17T15:02:53.999Z,12.41
2022-11-17T15:06:56.847Z,12.40
2022-11-17T15:10:58.467Z,12.31
2022-11-17T15:15:00.183Z,12.23
2022-11-17T15:19:02.546Z,12.19
2022-11-17T15:23:04.560Z,12.12
2022-11-17T15:27:06.130Z,12.01
2022-11-17T15:31:19.222Z,11.98
2022-11-17T15:35:20.937Z,11.94
2022-11-17T15:39:22.593Z,11.94
2022-11-17T15:43:28.799Z,11.93
2022-11-17T15:47:30.397Z,11.82
2022-11-17T15:51:32.709Z,11.67
2022-11-17T15:55:35.253Z,11.69
2022-11-17T15:59:36.899Z,11.74
2022-11-17T16:03:39.543Z,11.72
2022-11-17T16:07:41.205Z,11.74
2022-11-17T16:11:43.151Z,11.74
2022-11-17T16:15:48.429Z,11.75
2022-11-17T16:19:50.044Z,11.79
2022-11-17T16:23:57.082Z,11.84
2022-11-17T16:27:58.803Z,11.87
2022-11-17T16:32:00.333Z,11.85
2022-11-17T16:36:06.262Z,11.82
2022-11-17T16:40:08.034Z,11.78
2022-11-17T16:44:14.388Z,11.79
2022-11-17T16:48:16.121Z,11.81
2022-11-17T16:52:17.713Z,11.79
2022-11-17T16:56:19.357Z,11.81
2022-11-17T17:00:21.010Z,11.81
2022-11-17T17:04:22.702Z,11.82
2022-11-17T17:08:24.369Z,11.79
2022-11-17T17:12:27.462Z,11.78
2022-11-17T17:16:30.448Z,11.75
2022-11-17T17:20:31.990Z,11.74
2022-11-17T17:24:34.683Z,11.70
2022-11-17T17:28:40.406Z,11.70
2022-11-17T17:32:42.096Z,11.70
2022-11-17T17:36:43.837Z,11.70
2022-11-17T17:40:45.554Z,11.70
2022-11-17T17:44:47.168Z,11.74
2022-11-17T17:48:49.687Z,11.74
2022-11-17T17:52:51.335Z,11.77
2022-11-17T17:56:52.981Z,11.78
2022-11-17T18:00:56.193Z,11.78
2022-11-17T18:04:57.811Z,11.78
2022-11-17T18:08:59.429Z,11.77
2022-11-17T18:13:01.802Z,11.77
2022-11-17T18:17:04.231Z,11.79
2022-11-17T18:21:08.150Z,11.88
2022-11-17T18:25:15.099Z,11.94
2022-11-17T18:29:19.676Z,11.96
2022-11-17T18:33:21.759Z,11.98
2022-11-17T18:37:23.443Z,11.97
2022-11-17T18:41:26.682Z,11.94
2022-11-17T18:45:28.502Z,11.94
2022-11-17T18:49:31.076Z,11.94
2022-11-17T18:53:33.681Z,11.88
2022-11-17T18:57:35.424Z,11.90
2022-11-17T19:01:38.853Z,11.90
2022-11-17T19:05:40.447Z,11.85
2022-11-17T19:09:42.101Z,11.82
2022-11-17T19:13:44.540Z,11.74
2022-11-17T19:17:46.097Z,11.69
2022-11-17T19:21:48.345Z,11.62
2022-11-17T19:25:49.861Z,11.54
2022-11-17T19:29:51.536Z,11.48
2022-11-17T19:33:53.778Z,11.42
2022-11-17T19:37:58.502Z,11.38
2022-11-17T19:42:00.229Z,11.35
2022-11-17T19:46:04.123Z,11.31
2022-11-17T19:50:06.275Z,11.28
2022-11-17T19:54:09.467Z,11.26
2022-11-17T19:58:11.827Z,11.23
2022-11-17T20:02:13.499Z,11.21
2022-11-17T20:06:17.839Z,11.21
2022-11-17T20:10:19.822Z,11.21
2022-11-17T20:14:21.745Z,11.23
2022-11-17T20:18:23.350Z,11.24
2022-11-17T20:22:25.146Z,11.24
2022-11-17T20:26:29.649Z,11.26
2022-11-17T20:30:31.361Z,11.28
2022-11-17T20:34:33.057Z,11.31
2022-11-17T20:38:35.976Z,11.33
2022-11-17T20:42:37.600Z,11.30
2022-11-17T20:46:39.680Z,11.30
2022-11-17T20:50:41.264Z,11.31
2022-11-17T20:54:43.124Z,11.30
2022-11-17T20:58:45.165Z,11.30
2022-11-17T21:02:46.807Z,11.31
2022-11-17T21:06:48.474Z,11.35
2022-11-17T21:10:57.478Z,11.36
2022-11-17T21:14:59.039Z,11.39
2022-11-17T21:19:00.858Z,11.36
2022-11-17T21:23:02.753Z,11.36
2022-11-17T21:27:04.327Z,11.38
2022-11-17T21:31:09.744Z,11.36
2022-11-17T21:35:11.334Z,11.33
2022-11-17T21:39:18.341Z,11.24
2022-11-17T21:43:21.165Z,11.19
2022-11-17T21:47:22.750Z,11.17
2022-11-17T21:51:27.846Z,11.12
2022-11-17T21:55:30.036Z,11.09
2022-11-17T21:59:31.650Z,11.06
2022-11-17T22:03:33.290Z,11.03
2022-11-17T22:07:34.935Z,11.01
2022-11-17T22:11:37.947Z,10.99
2022-11-17T22:15:40.052Z,10.95
2022-11-17T22:19:41.612Z,10.95
2022-11-17T22:23:43.276Z,10.93
2022-11-17T22:27:44.954Z,10.93
2022-11-17T22:31:48.579Z,10.90
2022-11-17T22:35:50.606Z,10.86
2022-11-17T22:39:52.145Z,10.78
2022-11-17T22:43:55.866Z,10.78
2022-11-17T22:47:57.611Z,10.78
2022-11-17T22:52:05.824Z,10.80
2022-11-17T22:56:08.137Z,10.81
2022-11-17T23:00:10.854Z,10.83
2022-11-17T23:04:12.677Z,10.83
2022-11-17T23:08:14.448Z,10.84
2022-11-17T23:12:16.041Z,10.80
2022-11-17T23:16:17.760Z,10.78
2022-11-17T23:20:19.307Z,10.72
2022-11-17T23:24:20.962Z,10.69
2022-11-17T23:28:22.569Z,10.70
2022-11-17T23:32:24.700Z,10.72
2022-11-17T23:36:26.337Z,10.72
2022-11-17T23:40:27.989Z,10.72
2022-11-17T23:44:29.613Z,10.73
2022-11-17T23:48:31.201Z,10.75
2022-11-17T23:52:32.870Z,10.73
2022-11-17T23:56:34.849Z,10.72
